Terminal Aerodrome Forecast
Issued by NWS New Orleans/Baton Rouge, LA

Home | Current Version | Previous Version | Text Only | Print | Product List | Glossary On
Versions: 1 2 3 4 5 6 7 8 9 10 11 12 13 14
511
FTUS44 KLIX 220521
TAFBTR
TAF
KBTR 220521Z 2206/2306 13009KT P6SM VCSH BKN015 BKN030
      TEMPO 2206/2209 3SM -TSRA BKN015CB
     FM221500 16007KT 6SM SHRA SCT025 OVC035
      TEMPO 2215/2219 2SM TSRA BKN020CB
     FM221900 21005KT 6SM SHRA VCTS SCT025CB OVC050
     FM222300 26005KT P6SM SCT040 BKN060 PROB30 2223/2304 4SM -SHRA
      OVC030
     FM230400 32007KT P6SM BKN030 BKN090 PROB30 2304/2305 4SM -SHRA
      OVC015=

USA.gov is the U.S. government's official web portal to all federal, state and local government web resources and services.